createdAt,value
2022-10-10T00:01:36.080Z,5.91
2022-10-10T00:04:06.320Z,5.86
2022-10-10T00:06:33.931Z,5.69
2022-10-10T00:09:05.113Z,5.71
2022-10-10T00:11:32.504Z,5.81
2022-10-10T00:14:00.035Z,5.82
2022-10-10T00:16:27.665Z,5.74
2022-10-10T00:18:55.217Z,5.88
2022-10-10T00:21:22.415Z,6.05
2022-10-10T00:23:49.745Z,6.10
2022-10-10T00:26:19.288Z,6.13
2022-10-10T00:28:47.692Z,6.21
2022-10-10T00:31:15.526Z,6.15
2022-10-10T00:33:42.804Z,5.95
2022-10-10T00:36:10.533Z,5.76
2022-10-10T00:38:37.800Z,5.75
2022-10-10T00:41:06.029Z,5.82
2022-10-10T00:43:34.669Z,5.97
2022-10-10T00:46:01.983Z,6.12
2022-10-10T00:48:37.546Z,6.00
2022-10-10T00:51:18.921Z,5.79
2022-10-10T00:54:02.393Z,5.93
2022-10-10T00:56:37.992Z,6.00
2022-10-10T00:59:08.753Z,5.90
2022-10-10T01:01:35.861Z,6.00
2022-10-10T01:04:06.167Z,6.04
2022-10-10T01:06:35.779Z,6.01
2022-10-10T01:09:03.812Z,5.80
2022-10-10T01:12:00.965Z,6.02
2022-10-10T01:14:30.540Z,6.02
2022-10-10T01:17:29.536Z,6.10
2022-10-10T01:20:37.201Z,6.02
2022-10-10T01:23:36.166Z,5.92
2022-10-10T01:26:40.013Z,5.89
2022-10-10T01:29:39.155Z,6.02
2022-10-10T01:32:38.149Z,5.49
2022-10-10T01:35:37.612Z,5.81
2022-10-10T01:38:45.885Z,5.82
2022-10-10T01:41:43.426Z,5.87
2022-10-10T01:44:12.996Z,5.78
2022-10-10T01:46:40.123Z,5.74
2022-10-10T01:49:07.437Z,5.78
2022-10-10T01:52:08.136Z,5.73
2022-10-10T01:55:18.670Z,5.82
2022-10-10T01:57:59.706Z,5.65
2022-10-10T02:00:27.178Z,5.71
2022-10-10T02:03:00.024Z,5.58
2022-10-10T02:06:00.649Z,5.66
2022-10-10T02:08:45.626Z,5.59
2022-10-10T02:11:13.424Z,5.69
2022-10-10T02:14:03.114Z,5.67
2022-10-10T02:16:39.009Z,5.73
2022-10-10T02:19:14.338Z,5.75
2022-10-10T02:21:42.801Z,5.85
2022-10-10T02:24:12.496Z,5.89
2022-10-10T02:26:44.356Z,5.84
2022-10-10T02:29:19.516Z,5.70
2022-10-10T02:32:00.249Z,5.63
2022-10-10T02:34:38.698Z,5.66
2022-10-10T02:37:12.629Z,5.61
2022-10-10T02:39:49.326Z,5.44
2022-10-10T02:42:21.586Z,5.31
2022-10-10T02:44:48.747Z,4.95
2022-10-10T02:47:19.222Z,5.00
2022-10-10T02:49:53.887Z,5.03
2022-10-10T02:52:21.203Z,5.00
2022-10-10T02:54:50.807Z,4.99
2022-10-10T02:57:18.020Z,5.10
2022-10-10T02:59:45.198Z,5.05
2022-10-10T03:02:12.452Z,5.05
2022-10-10T03:04:40.120Z,5.03
2022-10-10T03:07:09.293Z,4.97
2022-10-10T03:09:36.511Z,5.14
2022-10-10T03:12:04.369Z,5.16
2022-10-10T03:14:31.579Z,5.12
2022-10-10T03:16:59.320Z,5.05
2022-10-10T03:19:26.881Z,5.21
2022-10-10T03:21:56.560Z,5.33
2022-10-10T03:24:23.670Z,5.06
2022-10-10T03:26:50.970Z,5.02
2022-10-10T03:29:18.301Z,5.15
2022-10-10T03:31:45.547Z,4.88
2022-10-10T03:34:12.738Z,4.89
2022-10-10T03:36:39.830Z,5.04
2022-10-10T03:39:09.399Z,4.90
2022-10-10T03:41:41.592Z,4.97
2022-10-10T03:44:08.767Z,4.92
2022-10-10T03:46:35.891Z,5.01
2022-10-10T03:49:03.086Z,4.87
2022-10-10T03:51:32.464Z,4.78
2022-10-10T03:53:59.649Z,4.92
2022-10-10T03:56:26.907Z,4.93
2022-10-10T03:59:00.704Z,4.91
2022-10-10T04:01:30.765Z,4.82
2022-10-10T04:03:58.264Z,4.95
2022-10-10T04:06:28.359Z,5.11
2022-10-10T04:08:55.630Z,4.85
2022-10-10T04:11:23.019Z,4.78
2022-10-10T04:13:50.201Z,4.69
2022-10-10T04:16:19.954Z,4.68
2022-10-10T04:18:47.131Z,4.68
2022-10-10T04:21:14.289Z,5.00
2022-10-10T04:23:41.553Z,5.23
2022-10-10T04:26:09.128Z,5.08
2022-10-10T04:28:36.650Z,5.19
2022-10-10T04:31:04.640Z,5.40
2022-10-10T04:33:31.769Z,5.10
2022-10-10T04:36:01.446Z,5.08
2022-10-10T04:38:29.227Z,5.21
2022-10-10T04:40:56.474Z,5.17
2022-10-10T04:43:23.902Z,5.02
2022-10-10T04:45:51.085Z,5.06
2022-10-10T04:48:18.249Z,4.94
2022-10-10T04:50:51.072Z,4.91
2022-10-10T04:53:18.409Z,4.99
2022-10-10T04:55:50.347Z,5.01
2022-10-10T04:58:18.410Z,4.94
2022-10-10T05:00:46.106Z,4.75
2022-10-10T05:03:13.727Z,4.91
2022-10-10T05:05:42.063Z,4.77
2022-10-10T05:08:09.469Z,4.71
2022-10-10T05:10:39.444Z,4.93
2022-10-10T05:13:14.553Z,4.89
2022-10-10T05:15:42.960Z,4.70
2022-10-10T05:18:10.297Z,4.59
2022-10-10T05:20:37.548Z,4.74
2022-10-10T05:23:07.461Z,4.97
2022-10-10T05:25:34.667Z,4.97
2022-10-10T05:28:01.720Z,5.11
2022-10-10T05:30:28.800Z,4.94
2022-10-10T05:32:56.403Z,5.28
2022-10-10T05:35:23.515Z,5.16
2022-10-10T05:37:52.594Z,5.08
2022-10-10T05:40:19.843Z,5.10
2022-10-10T05:42:46.915Z,5.26
2022-10-10T05:45:13.987Z,5.39
2022-10-10T05:47:41.120Z,5.38
2022-10-10T05:50:34.617Z,5.52
2022-10-10T05:53:01.884Z,5.81
2022-10-10T05:55:29.077Z,6.22
2022-10-10T05:57:58.700Z,6.57
2022-10-10T06:00:26.003Z,6.77
2022-10-10T06:02:53.683Z,7.42
2022-10-10T06:05:21.173Z,7.12
2022-10-10T06:08:04.592Z,7.79
2022-10-10T06:10:44.128Z,8.17
2022-10-10T06:13:14.997Z,9.25
2022-10-10T06:15:42.247Z,9.24
2022-10-10T06:18:09.739Z,9.96
2022-10-10T06:20:41.359Z,10.08
2022-10-10T06:23:09.397Z,10.49
2022-10-10T06:25:41.734Z,10.90
2022-10-10T06:28:10.712Z,11.09
2022-10-10T06:30:44.862Z,9.87
2022-10-10T06:33:13.037Z,11.43
2022-10-10T06:35:42.894Z,12.11
2022-10-10T06:38:14.263Z,12.37
2022-10-10T06:40:41.925Z,12.77
2022-10-10T06:43:13.045Z,12.49
2022-10-10T06:45:43.866Z,12.98
2022-10-10T06:48:13.234Z,12.56
2022-10-10T06:50:40.522Z,13.01
2022-10-10T06:53:07.879Z,13.17
2022-10-10T06:55:35.026Z,13.35
2022-10-10T06:58:02.278Z,13.33
2022-10-10T07:00:29.439Z,13.45
2022-10-10T07:02:56.498Z,13.91
2022-10-10T07:05:25.860Z,14.60
2022-10-10T07:07:53.327Z,14.08
2022-10-10T07:10:20.580Z,14.63
2022-10-10T07:12:47.661Z,13.93
2022-10-10T07:15:14.860Z,13.94
2022-10-10T07:17:44.571Z,14.48
2022-10-10T07:20:11.772Z,15.18
2022-10-10T07:22:41.382Z,16.28
2022-10-10T07:25:08.943Z,16.13
2022-10-10T07:27:36.084Z,17.04
2022-10-10T07:30:03.353Z,15.21
2022-10-10T07:32:32.924Z,17.22
2022-10-10T07:34:59.976Z,16.54
2022-10-10T07:37:27.125Z,18.32
2022-10-10T07:39:54.944Z,18.69
2022-10-10T07:42:25.231Z,17.95
2022-10-10T07:44:52.379Z,17.68
2022-10-10T07:47:19.467Z,17.73
2022-10-10T07:49:46.509Z,17.63
2022-10-10T07:52:13.626Z,16.52
2022-10-10T07:54:40.741Z,18.36
2022-10-10T07:57:07.836Z,16.30
2022-10-10T07:59:34.998Z,17.10
2022-10-10T08:02:02.121Z,18.10
2022-10-10T08:04:30.054Z,17.40
2022-10-10T08:06:57.311Z,17.70
2022-10-10T08:09:24.789Z,17.32
2022-10-10T08:11:52.153Z,16.94
2022-10-10T08:14:21.800Z,15.21
2022-10-10T08:16:53.204Z,16.90
2022-10-10T08:19:22.756Z,19.90
2022-10-10T08:21:50.614Z,18.89
2022-10-10T08:24:20.223Z,18.39
2022-10-10T08:26:47.603Z,19.76
2022-10-10T08:29:17.108Z,19.95
2022-10-10T08:31:44.321Z,17.37
2022-10-10T08:34:11.795Z,18.01
2022-10-10T08:36:39.102Z,18.51
2022-10-10T08:39:08.918Z,19.09
2022-10-10T08:42:00.751Z,18.46
2022-10-10T08:44:43.722Z,19.51
2022-10-10T08:47:10.674Z,16.50
2022-10-10T08:49:59.333Z,17.07
2022-10-10T08:53:02.790Z,16.43
2022-10-10T08:55:38.382Z,17.25
2022-10-10T08:58:27.013Z,17.14
2022-10-10T09:01:19.488Z,16.32
2022-10-10T09:03:53.732Z,15.58
2022-10-10T09:07:00.671Z,16.05
2022-10-10T09:09:58.532Z,16.57
2022-10-10T09:12:33.818Z,16.56
2022-10-10T09:15:45.785Z,17.04
2022-10-10T09:19:14.783Z,16.59
2022-10-10T09:21:46.034Z,16.33
2022-10-10T09:24:41.106Z,17.41
2022-10-10T09:27:19.541Z,18.10
2022-10-10T09:30:18.050Z,18.06
2022-10-10T09:33:32.112Z,16.43
2022-10-10T09:36:03.289Z,17.36
2022-10-10T09:38:44.718Z,16.45
2022-10-10T09:41:43.763Z,16.08
2022-10-10T09:44:21.753Z,15.44
2022-10-10T09:46:51.742Z,16.42
2022-10-10T09:49:22.586Z,17.62
2022-10-10T09:51:50.473Z,17.02
2022-10-10T09:54:19.916Z,18.80
2022-10-10T09:56:53.714Z,16.85
2022-10-10T09:59:42.229Z,16.14
2022-10-10T10:02:21.057Z,17.07
2022-10-10T10:04:52.754Z,19.26
2022-10-10T10:07:34.243Z,17.39
2022-10-10T10:10:22.118Z,19.02
2022-10-10T10:12:49.953Z,17.46
2022-10-10T10:15:21.381Z,16.99
2022-10-10T10:18:17.712Z,17.26
2022-10-10T10:20:46.094Z,18.61
2022-10-10T10:23:43.053Z,18.67
2022-10-10T10:26:30.005Z,17.76
2022-10-10T10:28:58.351Z,18.48
2022-10-10T10:31:48.548Z,19.81
2022-10-10T10:34:46.863Z,19.77
2022-10-10T10:37:33.052Z,19.47
2022-10-10T10:40:20.024Z,19.20
2022-10-10T10:43:11.666Z,19.27
2022-10-10T10:45:47.731Z,19.90
2022-10-10T10:48:40.657Z,20.30
2022-10-10T10:51:36.519Z,18.89
2022-10-10T10:54:52.613Z,17.86
2022-10-10T11:01:23.156Z,18.80
2022-10-10T11:05:15.770Z,18.74
2022-10-10T11:07:20.074Z,19.06
2022-10-10T11:10:14.004Z,18.13
2022-10-10T11:13:29.204Z,18.44
2022-10-10T11:16:46.903Z,18.45
2022-10-10T11:19:14.337Z,18.83
2022-10-10T11:22:02.013Z,19.04
2022-10-10T11:24:41.019Z,20.79
2022-10-10T11:27:27.004Z,18.83
2022-10-10T11:30:04.496Z,19.20
2022-10-10T11:33:19.969Z,20.08
2022-10-10T11:36:06.996Z,19.49
2022-10-10T11:38:52.706Z,19.05
2022-10-10T11:41:40.206Z,18.72
2022-10-10T11:44:27.573Z,19.58
2022-10-10T11:47:16.810Z,18.97
2022-10-10T11:50:13.781Z,19.76
2022-10-10T11:53:30.528Z,20.10
2022-10-10T11:56:04.222Z,19.83
2022-10-10T11:58:40.106Z,19.02
2022-10-10T12:01:33.081Z,19.64
2022-10-10T12:04:02.667Z,19.99
2022-10-10T12:06:43.382Z,19.15
2022-10-10T12:09:23.023Z,19.27
2022-10-10T12:12:28.666Z,20.06
2022-10-10T12:15:02.205Z,19.06
2022-10-10T12:17:34.332Z,18.63
2022-10-10T12:20:27.793Z,18.32
2022-10-10T12:23:31.683Z,19.53
2022-10-10T12:25:59.791Z,19.03
2022-10-10T12:28:35.437Z,18.25
2022-10-10T12:31:05.954Z,18.35
2022-10-10T12:33:33.221Z,18.33
2022-10-10T12:36:21.343Z,17.83
2022-10-10T12:39:11.220Z,18.42
2022-10-10T12:41:57.264Z,18.32
2022-10-10T12:44:34.666Z,18.83
2022-10-10T12:47:17.001Z,18.36
2022-10-10T12:49:55.198Z,18.75
2022-10-10T12:52:35.968Z,18.27
2022-10-10T12:55:19.167Z,17.75
2022-10-10T12:57:48.903Z,18.12
2022-10-10T13:00:23.752Z,18.51
2022-10-10T13:02:59.475Z,18.12
2022-10-10T13:05:32.039Z,18.34
2022-10-10T13:08:06.115Z,18.01
2022-10-10T13:10:33.931Z,17.85
2022-10-10T13:13:19.245Z,18.58
2022-10-10T13:15:59.690Z,18.58
2022-10-10T13:19:00.341Z,19.15
2022-10-10T13:21:35.119Z,18.46
2022-10-10T13:24:06.177Z,18.14
2022-10-10T13:26:43.547Z,18.23
2022-10-10T13:29:36.764Z,17.86
2022-10-10T13:32:13.829Z,17.69
2022-10-10T13:34:49.278Z,17.38
2022-10-10T13:37:20.173Z,17.23
2022-10-10T13:39:50.784Z,17.36
2022-10-10T13:42:32.798Z,17.38
2022-10-10T13:45:03.208Z,17.24
2022-10-10T13:48:02.710Z,17.07
2022-10-10T13:50:47.838Z,17.40
2022-10-10T13:53:29.301Z,17.03
2022-10-10T13:56:44.185Z,17.05
2022-10-10T13:59:15.646Z,17.09
2022-10-10T14:01:49.821Z,17.11
2022-10-10T14:04:30.460Z,16.98
2022-10-10T14:07:14.846Z,17.27
2022-10-10T14:09:53.394Z,16.82
2022-10-10T14:12:56.536Z,16.96
2022-10-10T14:15:50.335Z,16.97
2022-10-10T14:18:20.109Z,16.78
2022-10-10T14:20:49.061Z,16.96
2022-10-10T14:23:17.360Z,17.25
2022-10-10T14:25:48.288Z,16.89
2022-10-10T14:28:27.469Z,16.97
2022-10-10T14:30:55.076Z,16.75
2022-10-10T14:33:22.589Z,16.89
2022-10-10T14:35:52.780Z,17.09
2022-10-10T14:38:20.493Z,16.76
2022-10-10T14:40:51.193Z,16.92
2022-10-10T14:43:22.611Z,16.57
2022-10-10T14:45:55.785Z,16.73
2022-10-10T14:48:25.442Z,16.90
2022-10-10T14:50:55.575Z,16.85
2022-10-10T14:53:22.867Z,16.71
2022-10-10T14:55:55.308Z,16.77
2022-10-10T14:58:25.785Z,16.96
2022-10-10T15:00:53.411Z,16.72
2022-10-10T15:03:21.844Z,16.79
2022-10-10T15:05:51.470Z,16.58
2022-10-10T15:08:27.385Z,16.57
2022-10-10T15:10:58.598Z,16.78
2022-10-10T15:13:25.707Z,16.81
2022-10-10T15:15:52.770Z,16.58
2022-10-10T15:18:47.838Z,16.80
2022-10-10T15:21:12.235Z,16.51
2022-10-10T15:23:42.228Z,16.75
2022-10-10T15:26:09.294Z,16.37
2022-10-10T15:28:36.775Z,16.29
2022-10-10T15:31:05.019Z,16.48
2022-10-10T15:33:32.497Z,16.40
2022-10-10T15:36:11.493Z,16.44
2022-10-10T15:38:40.074Z,16.02
2022-10-10T15:41:10.098Z,16.20
2022-10-10T15:43:45.452Z,16.25
2022-10-10T15:46:12.738Z,16.31
2022-10-10T15:48:42.266Z,16.07
2022-10-10T15:51:09.615Z,16.04
2022-10-10T15:53:37.305Z,15.82
2022-10-10T15:56:16.545Z,15.99
2022-10-10T15:58:45.008Z,15.76
2022-10-10T16:01:20.075Z,15.75
2022-10-10T16:03:49.511Z,15.77
2022-10-10T16:06:19.598Z,15.74
2022-10-10T16:08:55.732Z,15.91
2022-10-10T16:11:31.414Z,15.52
2022-10-10T16:13:58.484Z,15.69
2022-10-10T16:16:25.839Z,15.75
2022-10-10T16:18:52.930Z,15.82
2022-10-10T16:21:24.881Z,15.55
2022-10-10T16:23:57.848Z,15.66
2022-10-10T16:26:32.259Z,15.37
2022-10-10T16:29:04.960Z,15.49
2022-10-10T16:31:35.260Z,15.37
2022-10-10T16:34:03.029Z,15.29
2022-10-10T16:36:33.546Z,15.28
2022-10-10T16:39:01.040Z,15.02
2022-10-10T16:41:49.456Z,15.28
2022-10-10T16:44:17.694Z,14.87
2022-10-10T16:46:45.093Z,15.19
2022-10-10T16:49:17.025Z,15.07
2022-10-10T16:51:44.216Z,14.99
2022-10-10T16:54:11.614Z,14.91
2022-10-10T16:56:41.957Z,14.83
2022-10-10T16:59:14.384Z,15.07
2022-10-10T17:01:41.682Z,14.89
2022-10-10T17:04:08.921Z,15.00
2022-10-10T17:06:38.569Z,15.20
2022-10-10T17:09:08.426Z,14.82
2022-10-10T17:11:38.629Z,14.80
2022-10-10T17:14:05.974Z,14.98
2022-10-10T17:19:23.604Z,14.81
2022-10-10T17:21:50.727Z,14.80
2022-10-10T17:24:17.955Z,14.56
2022-10-10T17:26:47.469Z,14.80
2022-10-10T17:29:14.890Z,14.79
2022-10-10T17:31:42.065Z,14.86
2022-10-10T17:34:09.205Z,14.62
2022-10-10T17:36:38.783Z,15.04
2022-10-10T17:39:07.617Z,14.67
2022-10-10T17:41:35.022Z,14.79
2022-10-10T17:44:02.134Z,14.66
2022-10-10T17:46:36.089Z,14.86
2022-10-10T17:49:10.155Z,14.68
2022-10-10T17:51:39.979Z,14.74
2022-10-10T17:54:08.236Z,14.76
2022-10-10T17:56:36.231Z,14.58
2022-10-10T17:59:06.536Z,14.93
2022-10-10T18:01:35.512Z,14.65
2022-10-10T18:04:02.739Z,14.68
2022-10-10T18:06:31.071Z,14.93
2022-10-10T18:08:58.998Z,14.99
2022-10-10T18:11:31.649Z,14.63
2022-10-10T18:14:02.486Z,14.97
2022-10-10T18:16:34.245Z,14.67
2022-10-10T18:19:03.947Z,14.54
2022-10-10T18:21:31.682Z,15.02
2022-10-10T18:24:01.221Z,14.57
2022-10-10T18:26:32.109Z,14.73
2022-10-10T18:28:59.328Z,14.61
2022-10-10T18:31:34.082Z,14.61
2022-10-10T18:34:03.652Z,14.49
2022-10-10T18:36:35.596Z,14.54
2022-10-10T18:39:11.826Z,14.58
2022-10-10T18:41:39.286Z,14.40
2022-10-10T18:44:14.073Z,14.43
2022-10-10T18:46:41.412Z,14.32
2022-10-10T18:49:10.657Z,14.58
2022-10-10T18:51:41.360Z,14.20
2022-10-10T18:54:12.024Z,14.13
2022-10-10T18:56:41.510Z,14.19
2022-10-10T18:59:16.080Z,14.09
2022-10-10T19:01:45.753Z,14.27
2022-10-10T19:04:15.302Z,13.93
2022-10-10T19:06:43.953Z,13.98
2022-10-10T19:09:16.099Z,14.16
2022-10-10T19:11:46.085Z,13.98
2022-10-10T19:14:18.196Z,14.07
2022-10-10T19:16:47.523Z,13.87
2022-10-10T19:19:21.285Z,13.81
2022-10-10T19:21:49.615Z,13.88
2022-10-10T19:24:21.265Z,13.72
2022-10-10T19:26:56.862Z,13.93
2022-10-10T19:29:26.531Z,13.69
2022-10-10T19:31:53.888Z,13.57
2022-10-10T19:34:21.165Z,13.96
2022-10-10T19:36:48.477Z,13.94
2022-10-10T19:39:15.693Z,13.88
2022-10-10T19:41:43.083Z,13.82
2022-10-10T19:44:10.295Z,13.67
2022-10-10T19:46:37.891Z,13.88
2022-10-10T19:49:05.893Z,13.60
2022-10-10T19:51:33.016Z,14.05
2022-10-10T19:54:00.225Z,13.73
2022-10-10T19:56:27.774Z,13.61
2022-10-10T19:59:00.684Z,13.73
2022-10-10T20:01:30.585Z,13.96
2022-10-10T20:03:59.385Z,13.70
2022-10-10T20:06:27.748Z,13.53
2022-10-10T20:08:55.212Z,13.60
2022-10-10T20:11:23.412Z,13.62
2022-10-10T20:13:55.439Z,13.91
2022-10-10T20:16:24.326Z,13.66
2022-10-10T20:18:54.715Z,13.51
2022-10-10T20:21:31.659Z,13.73
2022-10-10T20:24:11.073Z,13.69
2022-10-10T20:26:38.488Z,13.69
2022-10-10T20:29:06.922Z,13.74
2022-10-10T20:31:36.449Z,13.40
2022-10-10T20:34:08.580Z,13.65
2022-10-10T20:36:36.478Z,13.24
2022-10-10T20:39:08.416Z,13.14
2022-10-10T20:41:39.731Z,13.56
2022-10-10T20:44:10.723Z,13.34
2022-10-10T20:46:42.408Z,13.55
2022-10-10T20:49:20.052Z,13.52
2022-10-10T20:51:55.390Z,13.36
2022-10-10T20:54:24.463Z,13.47
2022-10-10T20:56:54.219Z,13.58
2022-10-10T20:59:24.755Z,13.57
2022-10-10T21:01:52.219Z,13.42
2022-10-10T21:04:19.526Z,13.33
2022-10-10T21:06:51.534Z,13.40
2022-10-10T21:09:19.676Z,13.60
2022-10-10T21:11:50.862Z,13.76
2022-10-10T21:14:19.563Z,13.56
2022-10-10T21:16:47.003Z,13.73
2022-10-10T21:19:14.761Z,13.99
2022-10-10T21:21:42.109Z,13.93
2022-10-10T21:24:11.459Z,14.02
2022-10-10T21:26:40.293Z,14.10
2022-10-10T21:29:07.885Z,14.13
2022-10-10T21:31:38.808Z,13.37
2022-10-10T21:34:13.587Z,13.65
2022-10-10T21:36:41.665Z,13.97
2022-10-10T21:39:08.988Z,13.93
2022-10-10T21:41:37.344Z,13.85
2022-10-10T21:44:04.872Z,13.42
2022-10-10T21:46:37.097Z,13.69
2022-10-10T21:49:10.181Z,14.05
2022-10-10T21:51:43.081Z,14.12
2022-10-10T21:54:12.916Z,14.16
2022-10-10T21:56:40.845Z,14.02
2022-10-10T21:59:11.282Z,13.73
2022-10-10T22:01:38.784Z,13.75
2022-10-10T22:04:06.564Z,13.75
2022-10-10T22:06:34.029Z,13.64
2022-10-10T22:09:03.135Z,13.60
2022-10-10T22:11:32.965Z,13.47
2022-10-10T22:14:02.599Z,13.28
2022-10-10T22:16:31.909Z,13.43
2022-10-10T22:19:00.072Z,13.40
2022-10-10T22:21:31.828Z,13.46
2022-10-10T22:24:05.096Z,13.24
2022-10-10T22:26:33.873Z,12.75
2022-10-10T22:29:04.681Z,13.19
2022-10-10T22:31:31.875Z,13.14
2022-10-10T22:33:59.117Z,13.11
2022-10-10T22:36:26.338Z,13.12
2022-10-10T22:38:53.533Z,13.07
2022-10-10T22:41:20.681Z,12.84
2022-10-10T22:43:48.188Z,12.79
2022-10-10T22:46:15.806Z,12.74
2022-10-10T22:48:43.205Z,12.45
2022-10-10T22:51:16.936Z,12.42
2022-10-10T22:53:45.756Z,12.51
2022-10-10T22:56:16.654Z,12.29
2022-10-10T22:58:47.890Z,12.02
2022-10-10T23:01:19.184Z,11.69
2022-10-10T23:03:46.809Z,11.92
2022-10-10T23:06:15.562Z,11.88
2022-10-10T23:08:45.273Z,11.96
2022-10-10T23:11:12.403Z,11.88
2022-10-10T23:13:39.522Z,11.73
2022-10-10T23:16:07.572Z,11.87
2022-10-10T23:18:35.050Z,11.82
2022-10-10T23:21:02.367Z,11.84
2022-10-10T23:23:29.705Z,11.75
2022-10-10T23:25:56.854Z,11.57
2022-10-10T23:28:24.175Z,11.69
2022-10-10T23:30:51.376Z,11.63
2022-10-10T23:33:18.500Z,11.68
2022-10-10T23:36:03.122Z,11.69
2022-10-10T23:38:30.904Z,11.71
2022-10-10T23:40:58.035Z,11.59
2022-10-10T23:43:25.206Z,11.60
2022-10-10T23:45:52.824Z,11.54
2022-10-10T23:48:20.005Z,11.49
2022-10-10T23:50:49.860Z,11.41
2022-10-10T23:53:17.056Z,11.45
2022-10-10T23:55:44.223Z,11.33
2022-10-10T23:58:11.374Z,11.15
